createdAt,value
2023-05-15T00:01:46.373Z,7.88
2023-05-15T00:04:47.967Z,7.63
2023-05-15T00:07:50.028Z,7.60
2023-05-15T00:11:00.976Z,7.68
2023-05-15T00:14:03.323Z,7.25
2023-05-15T00:17:05.442Z,8.10
2023-05-15T00:20:09.371Z,7.57
2023-05-15T00:23:11.382Z,7.80
2023-05-15T00:26:15.072Z,8.48
2023-05-15T00:29:16.540Z,8.23
2023-05-15T00:32:17.833Z,7.97
2023-05-15T00:35:20.424Z,8.13
2023-05-15T00:38:22.365Z,8.37
2023-05-15T00:41:27.965Z,8.35
2023-05-15T00:44:31.054Z,8.77
2023-05-15T00:47:33.091Z,8.20
2023-05-15T00:50:35.445Z,8.82
2023-05-15T00:53:38.077Z,8.13
2023-05-15T00:56:41.642Z,9.02
2023-05-15T00:59:45.186Z,8.43
2023-05-15T01:02:46.601Z,8.48
2023-05-15T01:05:48.081Z,8.90
2023-05-15T01:08:51.396Z,8.30
2023-05-15T01:11:54.786Z,8.05
2023-05-15T01:14:56.480Z,8.95
2023-05-15T01:17:57.941Z,8.90
2023-05-15T01:21:20.954Z,8.68
2023-05-15T01:24:42.543Z,8.70
2023-05-15T01:27:47.853Z,8.60
2023-05-15T01:30:52.286Z,8.55
2023-05-15T01:33:58.840Z,8.57
2023-05-15T01:37:03.154Z,8.07
2023-05-15T01:40:08.632Z,8.10
2023-05-15T01:43:15.970Z,8.52
2023-05-15T01:46:21.698Z,9.18
2023-05-15T01:49:27.182Z,8.45
2023-05-15T01:52:30.658Z,9.20
2023-05-15T01:55:33.260Z,8.70
2023-05-15T01:58:37.461Z,8.93
2023-05-15T02:01:40.069Z,9.50
2023-05-15T02:04:42.861Z,9.23
2023-05-15T02:07:45.662Z,9.13
2023-05-15T02:10:47.939Z,9.43
2023-05-15T02:13:51.494Z,9.65
2023-05-15T02:16:53.000Z,9.48
2023-05-15T02:19:54.364Z,9.38
2023-05-15T02:22:55.760Z,9.65
2023-05-15T02:26:11.028Z,9.40
2023-05-15T02:29:19.382Z,9.25
2023-05-15T02:32:31.327Z,9.32
2023-05-15T02:35:37.677Z,9.63
2023-05-15T02:38:44.448Z,9.90
2023-05-15T02:41:47.051Z,9.20
2023-05-15T02:44:50.767Z,9.48
2023-05-15T02:47:53.009Z,9.60
2023-05-15T02:50:55.229Z,9.70
2023-05-15T02:53:59.500Z,9.23
2023-05-15T02:57:00.885Z,9.43
2023-05-15T03:00:04.693Z,9.55
2023-05-15T03:03:06.146Z,9.90
2023-05-15T03:06:07.614Z,9.60
2023-05-15T03:09:08.915Z,9.90
2023-05-15T03:12:10.683Z,10.03
2023-05-15T03:15:12.868Z,10.20
2023-05-15T03:18:15.745Z,9.77
2023-05-15T03:21:18.748Z,10.13
2023-05-15T03:24:20.607Z,10.50
2023-05-15T03:27:22.016Z,9.90
2023-05-15T03:30:24.043Z,9.88
2023-05-15T03:33:25.454Z,9.88
2023-05-15T03:36:26.907Z,10.23
2023-05-15T03:39:28.187Z,10.55
2023-05-15T03:42:29.710Z,10.20
2023-05-15T03:45:33.223Z,9.00
2023-05-15T03:48:34.535Z,9.93
2023-05-15T03:51:36.250Z,9.90
2023-05-15T03:54:37.682Z,9.98
2023-05-15T03:57:40.914Z,10.33
2023-05-15T04:00:43.459Z,9.68
2023-05-15T04:03:44.789Z,10.13
2023-05-15T04:06:46.262Z,9.75
2023-05-15T04:09:47.570Z,10.00
2023-05-15T04:12:48.906Z,9.80
2023-05-15T04:15:51.121Z,9.85
2023-05-15T04:18:52.643Z,10.07
2023-05-15T04:21:54.476Z,10.00
2023-05-15T04:24:55.787Z,10.27
2023-05-15T04:27:57.206Z,9.80
2023-05-15T04:30:59.297Z,9.27
2023-05-15T04:34:00.781Z,10.13
2023-05-15T04:37:02.412Z,11.30
2023-05-15T04:40:05.823Z,12.45
2023-05-15T04:43:07.685Z,12.37
2023-05-15T04:46:09.795Z,11.80
2023-05-15T04:49:11.390Z,10.45
2023-05-15T04:52:12.838Z,10.80
2023-05-15T04:55:14.142Z,10.52
2023-05-15T04:58:15.768Z,9.70
2023-05-15T05:01:18.050Z,9.30
2023-05-15T05:04:19.636Z,10.43
2023-05-15T05:07:21.078Z,8.68
2023-05-15T05:10:22.712Z,9.02
2023-05-15T05:13:24.207Z,8.63
2023-05-15T05:16:26.389Z,8.38
2023-05-15T05:19:27.916Z,8.82
2023-05-15T05:22:30.525Z,8.23
2023-05-15T05:25:31.881Z,8.23
2023-05-15T05:28:33.352Z,8.32
2023-05-15T05:31:35.353Z,8.40
2023-05-15T05:34:36.817Z,8.10
2023-05-15T05:37:40.231Z,7.60
2023-05-15T05:40:42.889Z,7.30
2023-05-15T05:43:44.209Z,6.70
2023-05-15T05:46:46.170Z,7.20
2023-05-15T05:49:47.500Z,7.43
2023-05-15T05:52:49.114Z,8.27
2023-05-15T05:55:50.589Z,7.67
2023-05-15T05:58:52.068Z,7.65
2023-05-15T06:01:54.072Z,7.80
2023-05-15T06:04:55.520Z,7.63
2023-05-15T06:07:57.143Z,7.50
2023-05-15T06:10:58.624Z,7.53
2023-05-15T06:14:00.179Z,7.22
2023-05-15T06:17:02.572Z,7.20
2023-05-15T06:20:06.253Z,6.88
2023-05-15T06:23:07.535Z,6.95
2023-05-15T06:26:09.074Z,7.13
2023-05-15T06:29:10.716Z,6.95
2023-05-15T06:32:12.705Z,7.40
2023-05-15T06:35:14.061Z,7.43
2023-05-15T06:38:15.341Z,8.23
2023-05-15T06:41:16.788Z,7.33
2023-05-15T06:44:18.216Z,6.70
2023-05-15T06:47:20.254Z,7.90
2023-05-15T06:50:21.908Z,6.93
2023-05-15T06:53:23.204Z,7.35
2023-05-15T06:56:24.955Z,7.17
2023-05-15T06:59:26.291Z,6.78
2023-05-15T07:02:28.299Z,6.35
2023-05-15T07:05:30.005Z,5.95
2023-05-15T07:08:31.318Z,6.32
2023-05-15T07:11:36.572Z,6.50
2023-05-15T07:14:37.885Z,6.50
2023-05-15T07:17:40.000Z,7.57
2023-05-15T07:20:41.491Z,7.40
2023-05-15T07:23:42.839Z,7.13
2023-05-15T07:26:57.576Z,7.07
2023-05-15T07:30:00.925Z,6.80
2023-05-15T07:33:03.030Z,6.47
2023-05-15T07:36:05.155Z,6.97
2023-05-15T07:39:06.523Z,6.68
2023-05-15T07:42:08.070Z,6.10
2023-05-15T07:45:10.198Z,6.40
2023-05-15T07:48:16.463Z,6.70
2023-05-15T07:51:18.045Z,6.10
2023-05-15T07:54:19.428Z,6.25
2023-05-15T07:57:20.892Z,6.70
2023-05-15T08:00:22.230Z,6.32
2023-05-15T08:03:24.599Z,6.25
2023-05-15T08:06:26.133Z,5.85
2023-05-15T08:09:27.674Z,6.10
2023-05-15T08:12:29.131Z,5.57
2023-05-15T08:15:30.506Z,6.13
2023-05-15T08:18:32.668Z,6.35
2023-05-15T08:21:34.166Z,5.70
2023-05-15T08:24:35.506Z,6.40
2023-05-15T08:27:36.809Z,6.20
2023-05-15T08:30:38.142Z,5.57
2023-05-15T08:33:40.297Z,6.25
2023-05-15T08:36:42.922Z,6.38
2023-05-15T08:39:44.262Z,6.30
2023-05-15T08:42:49.788Z,6.00
2023-05-15T08:45:53.608Z,5.90
2023-05-15T08:48:56.774Z,6.43
2023-05-15T08:51:58.617Z,5.90
2023-05-15T08:55:00.617Z,6.50
2023-05-15T08:58:02.462Z,5.80
2023-05-15T09:01:04.041Z,6.45
2023-05-15T09:04:06.103Z,6.75
2023-05-15T09:07:09.414Z,6.47
2023-05-15T09:10:12.725Z,6.07
2023-05-15T09:13:14.843Z,6.30
2023-05-15T09:16:16.311Z,6.30
2023-05-15T09:19:20.043Z,6.20
2023-05-15T09:22:23.578Z,5.60
2023-05-15T09:25:37.411Z,6.13
2023-05-15T09:28:39.315Z,5.70
2023-05-15T09:31:41.015Z,5.57
2023-05-15T09:34:45.173Z,5.53
2023-05-15T09:37:46.506Z,5.55
2023-05-15T09:40:47.850Z,5.75
2023-05-15T09:43:49.171Z,5.90
2023-05-15T09:46:50.888Z,6.07
2023-05-15T09:49:53.142Z,5.68
2023-05-15T09:52:58.260Z,5.47
2023-05-15T09:55:59.773Z,5.30
2023-05-15T09:59:01.426Z,5.30
2023-05-15T10:02:02.921Z,6.05
2023-05-15T10:05:05.504Z,5.88
2023-05-15T10:08:06.869Z,5.70
2023-05-15T10:11:08.762Z,5.80
2023-05-15T10:14:12.535Z,5.33
2023-05-15T10:17:14.224Z,5.97
2023-05-15T10:20:17.696Z,6.00
2023-05-15T10:23:21.877Z,5.70
2023-05-15T10:26:29.254Z,5.43
2023-05-15T10:29:33.919Z,5.60
2023-05-15T10:32:36.225Z,5.60
2023-05-15T10:35:39.790Z,5.75
2023-05-15T10:38:42.823Z,5.90
2023-05-15T10:41:45.664Z,5.47
2023-05-15T10:44:48.636Z,5.67
2023-05-15T10:47:51.533Z,5.30
2023-05-15T10:50:53.658Z,5.10
2023-05-15T10:53:56.071Z,5.30
2023-05-15T10:56:57.511Z,5.18
2023-05-15T10:59:58.866Z,4.80
2023-05-15T11:03:00.376Z,5.30
2023-05-15T11:06:09.557Z,5.50
2023-05-15T11:09:33.347Z,5.25
2023-05-15T11:12:56.318Z,5.50
2023-05-15T11:15:57.624Z,5.70
2023-05-15T11:18:59.159Z,5.35
2023-05-15T11:22:02.518Z,5.60
2023-05-15T11:25:08.121Z,4.63
2023-05-15T11:28:21.646Z,5.43
2023-05-15T11:31:29.905Z,5.10
2023-05-15T11:34:32.708Z,5.15
2023-05-15T11:37:38.030Z,5.60
2023-05-15T11:40:47.969Z,5.63
2023-05-15T11:43:50.245Z,5.43
2023-05-15T11:46:52.934Z,5.53
2023-05-15T11:49:54.518Z,5.30
2023-05-15T11:52:57.349Z,5.50
2023-05-15T11:55:59.199Z,5.57
2023-05-15T11:59:01.665Z,5.80
2023-05-15T12:02:05.851Z,5.20
2023-05-15T12:05:08.266Z,5.40
2023-05-15T12:08:11.050Z,5.78
2023-05-15T12:11:12.903Z,4.78
2023-05-15T12:14:14.566Z,5.00
2023-05-15T12:17:15.901Z,4.70
2023-05-15T12:20:18.480Z,4.20
2023-05-15T12:23:22.470Z,4.30
2023-05-15T12:26:25.585Z,4.20
2023-05-15T12:29:28.414Z,4.30
2023-05-15T12:32:31.806Z,4.10
2023-05-15T12:35:34.274Z,4.18
2023-05-15T12:38:36.747Z,3.85
2023-05-15T12:41:38.606Z,3.67
2023-05-15T12:44:39.971Z,4.00
2023-05-15T12:47:42.647Z,3.70
2023-05-15T12:50:45.087Z,3.00
2023-05-15T12:53:47.155Z,3.40
2023-05-15T12:56:49.158Z,2.63
2023-05-15T12:59:50.819Z,2.60
2023-05-15T13:02:54.377Z,2.80
2023-05-15T13:05:56.098Z,2.90
2023-05-15T13:08:58.523Z,2.60
2023-05-15T13:12:03.406Z,2.45
2023-05-15T13:15:06.488Z,2.92
2023-05-15T13:18:10.020Z,2.90
2023-05-15T13:21:11.470Z,3.15
2023-05-15T13:24:13.654Z,3.22
2023-05-15T13:27:15.383Z,2.92
2023-05-15T13:30:17.468Z,3.22
2023-05-15T13:33:19.165Z,2.90
2023-05-15T13:36:20.667Z,2.90
2023-05-15T13:39:22.651Z,3.00
2023-05-15T13:42:24.073Z,2.70
2023-05-15T13:45:25.483Z,3.40
2023-05-15T13:48:27.076Z,2.40
2023-05-15T13:51:28.582Z,2.10
2023-05-15T13:54:31.179Z,2.08
2023-05-15T13:57:32.659Z,1.83
2023-05-15T14:00:34.117Z,2.20
2023-05-15T14:03:35.693Z,2.00
2023-05-15T14:06:37.179Z,2.50
2023-05-15T14:09:39.536Z,2.88
2023-05-15T14:12:42.652Z,2.47
2023-05-15T14:15:43.980Z,2.65
2023-05-15T14:18:45.514Z,2.77
2023-05-15T14:21:46.961Z,2.65
2023-05-15T14:24:48.972Z,2.75
2023-05-15T14:27:50.640Z,3.03
2023-05-15T14:30:51.915Z,3.25
2023-05-15T14:33:53.528Z,2.83
2023-05-15T14:36:54.887Z,2.50
2023-05-15T14:39:57.009Z,2.78
2023-05-15T14:42:58.340Z,2.90
2023-05-15T14:45:59.854Z,3.00
2023-05-15T14:49:01.308Z,2.70
2023-05-15T14:52:02.752Z,2.80
2023-05-15T14:55:09.726Z,3.20
2023-05-15T14:58:11.357Z,3.08
2023-05-15T15:01:12.832Z,3.08
2023-05-15T15:04:14.308Z,2.43
2023-05-15T15:07:15.816Z,2.40
2023-05-15T15:10:18.218Z,2.70
2023-05-15T15:13:19.808Z,2.50
2023-05-15T15:16:21.328Z,2.50
2023-05-15T15:19:22.984Z,2.60
2023-05-15T15:22:24.284Z,2.72
2023-05-15T15:25:26.451Z,2.80
2023-05-15T15:28:28.502Z,2.40
2023-05-15T15:31:30.549Z,2.50
2023-05-15T15:34:31.874Z,2.30
2023-05-15T15:37:34.725Z,2.35
2023-05-15T15:40:36.674Z,2.60
2023-05-15T15:43:38.319Z,2.58
2023-05-15T15:46:39.674Z,2.70
2023-05-15T15:49:42.594Z,2.50
2023-05-15T15:52:44.176Z,2.85
2023-05-15T15:55:47.222Z,3.08
2023-05-15T15:58:48.742Z,2.78
2023-05-15T16:01:50.619Z,2.83
2023-05-15T16:04:53.925Z,2.80
2023-05-15T16:07:55.259Z,2.20
2023-05-15T16:10:57.404Z,2.35
2023-05-15T16:13:58.703Z,2.20
2023-05-15T16:17:00.716Z,2.40
2023-05-15T16:20:02.624Z,2.30
2023-05-15T16:23:03.977Z,2.45
2023-05-15T16:26:06.097Z,2.50
2023-05-15T16:29:07.447Z,2.63
2023-05-15T16:32:08.884Z,2.40
2023-05-15T16:35:10.426Z,3.03
2023-05-15T16:38:12.617Z,2.40
2023-05-15T16:41:14.621Z,2.67
2023-05-15T16:44:15.896Z,2.70
2023-05-15T16:47:17.332Z,2.50
2023-05-15T16:50:18.866Z,2.38
2023-05-15T16:53:20.341Z,2.78
2023-05-15T16:56:22.262Z,2.70
2023-05-15T16:59:23.580Z,2.83
2023-05-15T17:02:25.696Z,2.90
2023-05-15T17:05:27.380Z,2.65
2023-05-15T17:08:28.731Z,3.10
2023-05-15T17:11:30.811Z,3.00
2023-05-15T17:14:32.080Z,3.50
2023-05-15T17:17:33.882Z,3.80
2023-05-15T17:20:35.226Z,3.10
2023-05-15T17:23:36.563Z,3.45
2023-05-15T17:26:38.540Z,3.13
2023-05-15T17:29:40.125Z,3.13
2023-05-15T17:32:41.637Z,3.10
2023-05-15T17:35:43.069Z,3.20
2023-05-15T17:38:44.343Z,3.60
2023-05-15T17:41:46.352Z,3.47
2023-05-15T17:44:47.671Z,3.40
2023-05-15T17:47:49.194Z,4.00
2023-05-15T17:50:50.948Z,3.60
2023-05-15T17:53:52.425Z,3.67
2023-05-15T17:56:54.497Z,3.55
2023-05-15T17:59:55.828Z,3.30
2023-05-15T18:02:57.383Z,3.30
2023-05-15T18:05:58.854Z,3.17
2023-05-15T18:09:00.280Z,3.08
2023-05-15T18:12:02.702Z,3.08
2023-05-15T18:15:04.778Z,3.23
2023-05-15T18:18:06.309Z,3.43
2023-05-15T18:21:07.672Z,3.38
2023-05-15T18:24:09.179Z,3.75
2023-05-15T18:27:11.135Z,3.30
2023-05-15T18:30:13.762Z,3.57
2023-05-15T18:33:15.197Z,3.23
2023-05-15T18:36:16.503Z,3.30
2023-05-15T18:39:17.966Z,3.60
2023-05-15T18:42:19.875Z,3.55
2023-05-15T18:45:22.441Z,4.90
2023-05-15T18:48:23.814Z,3.80
2023-05-15T18:51:25.360Z,3.63
2023-05-15T18:54:26.842Z,3.78
2023-05-15T18:57:28.967Z,4.38
2023-05-15T19:03:36.670Z,3.80
2023-05-15T19:06:38.660Z,3.55
2023-05-15T19:09:40.132Z,3.88
2023-05-15T19:12:44.159Z,3.78
2023-05-15T19:15:50.328Z,3.90
2023-05-15T19:18:51.823Z,4.00
2023-05-15T19:21:53.438Z,4.30
2023-05-15T19:24:55.125Z,3.90
2023-05-15T19:27:57.225Z,3.90
2023-05-15T19:30:58.514Z,4.10
2023-05-15T19:34:00.349Z,3.83
2023-05-15T19:37:01.844Z,3.85
2023-05-15T19:40:05.230Z,4.18
2023-05-15T19:43:07.353Z,3.80
2023-05-15T19:46:08.679Z,4.07
2023-05-15T19:49:10.676Z,3.87
2023-05-15T19:52:11.945Z,3.85
2023-05-15T19:55:13.502Z,4.10
2023-05-15T19:58:15.481Z,3.72
2023-05-15T20:01:17.021Z,4.00
2023-05-15T20:04:20.149Z,4.17
2023-05-15T20:07:21.560Z,3.58
2023-05-15T20:10:23.224Z,4.47
2023-05-15T20:13:25.193Z,3.92
2023-05-15T20:16:26.784Z,3.97
2023-05-15T20:19:30.728Z,3.90
2023-05-15T20:22:32.158Z,3.85
2023-05-15T20:25:33.452Z,4.20
2023-05-15T20:28:35.512Z,3.97
2023-05-15T20:31:37.472Z,3.73
2023-05-15T20:34:40.657Z,4.13
2023-05-15T20:37:43.691Z,3.60
2023-05-15T20:40:45.048Z,4.05
2023-05-15T20:43:47.121Z,3.90
2023-05-15T20:46:48.394Z,4.17
2023-05-15T20:49:49.784Z,3.70
2023-05-15T20:52:51.058Z,3.83
2023-05-15T20:55:52.636Z,4.15
2023-05-15T20:58:54.571Z,3.92
2023-05-15T21:01:56.163Z,4.23
2023-05-15T21:04:57.740Z,4.17
2023-05-15T21:07:59.042Z,4.07
2023-05-15T21:11:00.649Z,4.47
2023-05-15T21:14:02.801Z,3.80
2023-05-15T21:17:04.571Z,4.50
2023-05-15T21:20:07.366Z,3.83
2023-05-15T21:23:08.687Z,4.13
2023-05-15T21:26:10.714Z,3.83
2023-05-15T21:29:12.906Z,4.00
2023-05-15T21:32:14.339Z,5.10
2023-05-15T21:35:16.214Z,4.77
2023-05-15T21:38:17.683Z,4.43
2023-05-15T21:41:19.122Z,4.25
2023-05-15T21:44:21.355Z,4.75
2023-05-15T21:47:22.868Z,5.03
2023-05-15T21:50:25.227Z,4.47
2023-05-15T21:53:26.995Z,5.35
2023-05-15T21:56:28.300Z,4.97
2023-05-15T21:59:30.408Z,5.68
2023-05-15T22:02:31.698Z,5.20
2023-05-15T22:05:33.567Z,4.50
2023-05-15T22:08:34.889Z,5.32
2023-05-15T22:11:36.325Z,4.85
2023-05-15T22:14:46.984Z,5.27
2023-05-15T22:17:59.699Z,5.45
2023-05-15T22:21:02.134Z,5.43
2023-05-15T22:24:03.843Z,5.70
2023-05-15T22:27:05.436Z,5.88
2023-05-15T22:30:08.668Z,5.20
2023-05-15T22:33:10.201Z,5.30
2023-05-15T22:36:11.480Z,6.30
2023-05-15T22:39:12.904Z,5.43
2023-05-15T22:42:14.201Z,5.13
2023-05-15T22:45:17.309Z,6.03
2023-05-15T22:48:20.249Z,5.45
2023-05-15T22:51:21.816Z,5.65
2023-05-15T22:54:23.648Z,5.63
2023-05-15T22:57:26.033Z,5.75
2023-05-15T23:00:28.332Z,5.90
2023-05-15T23:03:30.077Z,5.38
2023-05-15T23:06:31.585Z,6.65
2023-05-15T23:09:33.061Z,6.15
2023-05-15T23:12:34.324Z,6.15
2023-05-15T23:15:36.472Z,6.17
2023-05-15T23:18:37.986Z,6.35
2023-05-15T23:21:39.302Z,6.55
2023-05-15T23:24:40.707Z,6.10
2023-05-15T23:27:42.009Z,6.50
2023-05-15T23:30:44.148Z,5.80
2023-05-15T23:33:45.552Z,6.45
2023-05-15T23:36:46.994Z,6.88
2023-05-15T23:39:48.426Z,6.72
2023-05-15T23:42:49.787Z,6.35
2023-05-15T23:45:51.936Z,6.57
2023-05-15T23:48:53.233Z,6.70
2023-05-15T23:51:54.670Z,6.85
2023-05-15T23:54:55.945Z,6.10
2023-05-15T23:57:57.241Z,6.60
